Terminal Aerodrome Forecast
Issued by NWS

Home | Current Version | Previous Version | Graphics & Text | Print | Product List | Glossary On
Versions: 1 2 3 4 5 6 7 8 9 10 11 12 13 14 15 16 17 18 19
000
FTUS43 KICT 131722
TAFCNU
TAF
KCNU 131722Z 1318/1418 06010KT P6SM VCSH OVC015
      TEMPO 1320/1324 -FZRA OVC012
     FM140000 04008KT 6SM -FZRA OVC012
     FM140700 01006KT 5SM -FZRA OVC008
     FM141500 01005KT 3SM -FZRA OVC008=

USA.gov is the U.S. government's official web portal to all federal, state and local government web resources and services.